createdAt,value
2023-02-08T00:00:54.507Z,8.57
2023-02-08T00:03:21.641Z,8.57
2023-02-08T00:05:48.575Z,8.45
2023-02-08T00:08:15.741Z,7.75
2023-02-08T00:10:43.600Z,8.40
2023-02-08T00:13:10.642Z,8.98
2023-02-08T00:15:43.529Z,7.75
2023-02-08T00:18:10.905Z,9.45
2023-02-08T00:20:42.961Z,9.25
2023-02-08T00:23:10.577Z,8.20
2023-02-08T00:25:37.566Z,8.18
2023-02-08T00:28:05.387Z,8.43
2023-02-08T00:30:36.695Z,8.65
2023-02-08T00:33:04.095Z,8.90
2023-02-08T00:35:31.937Z,7.47
2023-02-08T00:37:58.699Z,7.50
2023-02-08T00:40:26.465Z,8.80
2023-02-08T00:42:53.476Z,7.57
2023-02-08T00:45:20.409Z,7.95
2023-02-08T00:47:47.279Z,9.40
2023-02-08T00:50:14.695Z,8.48
2023-02-08T00:52:41.415Z,9.23
2023-02-08T00:55:10.702Z,9.75
2023-02-08T00:57:37.439Z,8.98
2023-02-08T01:00:07.297Z,9.00
2023-02-08T01:02:39.125Z,8.95
2023-02-08T01:05:06.845Z,8.80
2023-02-08T01:07:37.122Z,7.78
2023-02-08T01:10:06.514Z,8.30
2023-02-08T01:12:34.766Z,8.27
2023-02-08T01:15:01.473Z,7.63
2023-02-08T01:17:28.126Z,7.90
2023-02-08T01:19:54.874Z,9.02
2023-02-08T01:22:21.581Z,7.88
2023-02-08T01:24:48.273Z,8.48
2023-02-08T01:27:14.977Z,9.10
2023-02-08T01:29:41.594Z,8.95
2023-02-08T01:32:08.323Z,8.77
2023-02-08T01:34:35.061Z,9.13
2023-02-08T01:37:01.726Z,8.98
2023-02-08T01:39:28.444Z,8.77
2023-02-08T01:41:55.152Z,9.45
2023-02-08T01:45:20.701Z,8.98
2023-02-08T01:47:55.133Z,8.65
2023-02-08T01:50:30.696Z,9.32
2023-02-08T01:52:58.066Z,8.75
2023-02-08T01:55:31.973Z,8.88
2023-02-08T01:58:03.633Z,9.60
2023-02-08T02:00:31.551Z,9.13
2023-02-08T02:02:59.984Z,9.15
2023-02-08T02:05:35.334Z,10.10
2023-02-08T02:08:02.363Z,10.20
2023-02-08T02:10:33.505Z,9.32
2023-02-08T02:13:25.021Z,9.73
2023-02-08T02:15:53.288Z,8.23
2023-02-08T02:18:34.646Z,9.15
2023-02-08T02:21:24.562Z,8.60
2023-02-08T02:24:26.647Z,7.75
2023-02-08T02:27:35.341Z,8.38
2023-02-08T02:30:16.904Z,9.48
2023-02-08T02:33:05.944Z,8.93
2023-02-08T02:36:03.576Z,9.15
2023-02-08T02:38:52.640Z,7.40
2023-02-08T02:41:57.162Z,8.60
2023-02-08T02:44:32.884Z,8.48
2023-02-08T02:47:15.182Z,9.40
2023-02-08T02:49:57.017Z,8.45
2023-02-08T02:52:43.386Z,8.35
2023-02-08T02:57:44.928Z,8.60
2023-02-08T03:00:19.361Z,8.48
2023-02-08T03:02:46.031Z,8.23
2023-02-08T03:05:13.488Z,9.27
2023-02-08T03:07:46.215Z,9.15
2023-02-08T03:10:53.860Z,8.48
2023-02-08T03:13:43.405Z,7.63
2023-02-08T03:16:41.368Z,8.48
2023-02-08T03:19:18.376Z,8.80
2023-02-08T03:22:01.010Z,8.38
2023-02-08T03:24:37.509Z,8.60
2023-02-08T03:27:18.253Z,9.18
2023-02-08T03:29:53.678Z,7.88
2023-02-08T03:32:38.682Z,9.27
2023-02-08T03:35:20.454Z,9.07
2023-02-08T03:38:08.572Z,9.13
2023-02-08T03:40:45.621Z,8.30
2023-02-08T03:43:19.084Z,8.43
2023-02-08T03:45:55.475Z,10.02
2023-02-08T03:48:24.632Z,9.00
2023-02-08T03:50:55.665Z,9.57
2023-02-08T03:53:24.750Z,7.90
2023-02-08T03:56:00.370Z,8.63
2023-02-08T03:58:45.204Z,7.75
2023-02-08T04:01:30.347Z,8.45
2023-02-08T04:03:58.514Z,7.30
2023-02-08T04:06:25.407Z,9.00
2023-02-08T04:08:52.840Z,9.20
2023-02-08T04:11:19.607Z,7.63
2023-02-08T04:13:46.264Z,8.77
2023-02-08T04:16:13.611Z,8.07
2023-02-08T04:18:40.334Z,8.40
2023-02-08T04:21:09.661Z,9.02
2023-02-08T04:23:36.351Z,9.38
2023-02-08T04:26:04.043Z,8.15
2023-02-08T04:28:30.768Z,8.63
2023-02-08T04:30:58.062Z,9.52
2023-02-08T04:33:24.982Z,8.50
2023-02-08T04:35:52.233Z,8.48
2023-02-08T04:38:19.025Z,10.00
2023-02-08T04:40:45.637Z,10.65
2023-02-08T04:43:12.250Z,10.48
2023-02-08T04:45:38.872Z,9.35
2023-02-08T04:48:07.301Z,9.57
2023-02-08T04:50:35.170Z,9.05
2023-02-08T04:53:01.963Z,9.27
2023-02-08T04:55:31.518Z,9.13
2023-02-08T04:57:58.639Z,10.18
2023-02-08T05:00:25.321Z,10.38
2023-02-08T05:02:57.141Z,8.90
2023-02-08T05:05:26.088Z,9.88
2023-02-08T05:07:52.957Z,9.82
2023-02-08T05:10:19.947Z,8.68
2023-02-08T05:12:46.723Z,9.50
2023-02-08T05:15:13.499Z,8.93
2023-02-08T05:17:40.284Z,8.25
2023-02-08T05:20:08.119Z,8.68
2023-02-08T05:22:34.810Z,8.10
2023-02-08T05:25:01.731Z,9.57
2023-02-08T05:27:28.678Z,9.88
2023-02-08T05:29:56.733Z,8.77
2023-02-08T05:32:24.343Z,9.95
2023-02-08T05:34:50.975Z,11.38
2023-02-08T05:37:17.674Z,10.45
2023-02-08T05:39:44.318Z,9.20
2023-02-08T05:42:10.912Z,9.43
2023-02-08T05:44:37.628Z,8.18
2023-02-08T05:47:04.481Z,9.23
2023-02-08T05:49:31.144Z,8.40
2023-02-08T05:51:57.768Z,8.70
2023-02-08T05:54:24.426Z,9.38
2023-02-08T05:56:51.092Z,8.93
2023-02-08T05:59:17.874Z,9.90
2023-02-08T06:01:44.468Z,9.43
2023-02-08T06:04:11.222Z,8.98
2023-02-08T06:06:37.903Z,10.05
2023-02-08T06:09:04.937Z,9.93
2023-02-08T06:11:31.644Z,8.70
2023-02-08T06:13:58.316Z,10.13
2023-02-08T06:16:25.021Z,9.68
2023-02-08T06:18:51.768Z,9.10
2023-02-08T06:21:18.477Z,9.38
2023-02-08T06:23:45.149Z,9.85
2023-02-08T06:26:11.910Z,10.23
2023-02-08T06:28:38.678Z,9.90
2023-02-08T06:31:05.561Z,8.73
2023-02-08T06:33:32.185Z,9.27
2023-02-08T06:35:58.838Z,9.48
2023-02-08T06:38:26.757Z,9.57
2023-02-08T06:40:53.398Z,8.90
2023-02-08T06:43:20.576Z,10.05
2023-02-08T06:45:47.551Z,9.75
2023-02-08T06:48:14.866Z,10.15
2023-02-08T06:50:41.926Z,10.23
2023-02-08T06:53:08.965Z,9.13
2023-02-08T06:55:35.616Z,9.40
2023-02-08T06:58:02.342Z,9.75
2023-02-08T07:00:29.254Z,9.75
2023-02-08T07:02:55.961Z,8.70
2023-02-08T07:05:22.635Z,8.98
2023-02-08T07:07:49.266Z,10.77
2023-02-08T07:10:16.782Z,9.55
2023-02-08T07:12:43.386Z,8.82
2023-02-08T07:15:13.135Z,9.65
2023-02-08T07:17:40.149Z,9.70
2023-02-08T07:20:08.467Z,9.00
2023-02-08T07:22:35.258Z,9.70
2023-02-08T07:25:01.878Z,8.15
2023-02-08T07:27:28.529Z,8.43
2023-02-08T07:29:55.158Z,8.88
2023-02-08T07:32:21.877Z,8.35
2023-02-08T07:34:48.483Z,8.20
2023-02-08T07:37:15.124Z,9.60
2023-02-08T07:39:41.782Z,8.63
2023-02-08T07:42:09.935Z,8.90
2023-02-08T07:44:47.810Z,8.05
2023-02-08T07:47:14.564Z,7.28
2023-02-08T07:49:41.210Z,8.77
2023-02-08T07:52:07.985Z,7.93
2023-02-08T07:54:34.697Z,7.35
2023-02-08T07:57:03.561Z,8.65
2023-02-08T07:59:30.490Z,8.25
2023-02-08T08:01:57.205Z,9.15
2023-02-08T08:04:23.904Z,7.63
2023-02-08T08:06:51.458Z,9.07
2023-02-08T08:09:20.218Z,7.97
2023-02-08T08:11:46.897Z,8.30
2023-02-08T08:14:13.545Z,7.28
2023-02-08T08:16:40.531Z,8.10
2023-02-08T08:19:07.161Z,7.90
2023-02-08T08:21:33.763Z,8.27
2023-02-08T08:24:03.298Z,7.95
2023-02-08T08:26:30.043Z,8.85
2023-02-08T08:28:56.748Z,8.00
2023-02-08T08:31:23.459Z,7.68
2023-02-08T08:33:50.597Z,7.32
2023-02-08T08:36:17.359Z,8.63
2023-02-08T08:38:44.163Z,7.80
2023-02-08T08:41:22.174Z,8.13
2023-02-08T08:43:49.455Z,7.72
2023-02-08T08:46:16.705Z,7.53
2023-02-08T08:48:44.307Z,7.47
2023-02-08T08:51:11.004Z,6.63
2023-02-08T08:53:37.663Z,6.90
2023-02-08T08:56:06.132Z,7.45
2023-02-08T08:58:32.957Z,6.50
2023-02-08T09:01:00.457Z,7.72
2023-02-08T09:03:28.691Z,7.68
2023-02-08T09:05:56.182Z,7.82
2023-02-08T09:08:22.894Z,6.68
2023-02-08T09:10:50.030Z,6.93
2023-02-08T09:13:19.753Z,7.05
2023-02-08T09:15:47.370Z,7.07
2023-02-08T09:18:14.283Z,7.97
2023-02-08T09:20:41.609Z,7.15
2023-02-08T09:23:08.557Z,7.10
2023-02-08T09:25:37.028Z,7.85
2023-02-08T09:28:04.585Z,8.02
2023-02-08T09:30:31.832Z,8.48
2023-02-08T09:32:58.506Z,8.63
2023-02-08T09:35:25.158Z,8.43
2023-02-08T09:37:57.763Z,7.35
2023-02-08T09:40:35.256Z,7.57
2023-02-08T09:43:58.532Z,7.05
2023-02-08T09:46:29.914Z,7.25
2023-02-08T09:49:02.123Z,6.80
2023-02-08T09:51:43.562Z,7.03
2023-02-08T09:54:41.786Z,6.30
2023-02-08T09:57:21.287Z,6.63
2023-02-08T10:00:27.515Z,7.15
2023-02-08T10:02:55.217Z,6.85
2023-02-08T10:05:25.152Z,6.40
2023-02-08T10:07:51.943Z,6.57
2023-02-08T10:10:37.108Z,6.88
2023-02-08T10:13:40.669Z,6.22
2023-02-08T10:16:43.756Z,6.25
2023-02-08T10:19:40.610Z,6.90
2023-02-08T10:22:36.837Z,6.15
2023-02-08T10:25:26.505Z,6.88
2023-02-08T10:28:30.384Z,6.40
2023-02-08T10:31:36.246Z,7.03
2023-02-08T10:34:35.875Z,6.22
2023-02-08T10:37:13.172Z,6.55
2023-02-08T10:39:39.961Z,6.88
2023-02-08T10:42:16.806Z,5.22
2023-02-08T10:45:26.933Z,5.80
2023-02-08T10:47:58.324Z,5.65
2023-02-08T10:50:41.465Z,5.78
2023-02-08T10:53:18.587Z,5.40
2023-02-08T10:55:47.947Z,5.97
2023-02-08T10:58:25.539Z,5.57
2023-02-08T11:00:54.263Z,5.97
2023-02-08T11:03:28.462Z,5.22
2023-02-08T11:05:56.173Z,5.47
2023-02-08T11:08:25.728Z,5.55
2023-02-08T11:11:08.889Z,5.22
2023-02-08T11:13:45.645Z,5.68
2023-02-08T11:16:22.233Z,4.93
2023-02-08T11:19:01.233Z,4.57
2023-02-08T11:21:39.977Z,4.55
2023-02-08T11:24:15.714Z,5.35
2023-02-08T11:26:43.336Z,3.38
2023-02-08T11:29:23.109Z,4.93
2023-02-08T11:31:56.562Z,5.38
2023-02-08T11:34:26.421Z,4.97
2023-02-08T11:36:53.707Z,4.25
2023-02-08T11:39:36.344Z,4.18
2023-02-08T11:42:04.261Z,3.67
2023-02-08T11:44:41.984Z,4.03
2023-02-08T11:47:15.558Z,3.58
2023-02-08T11:49:51.415Z,3.83
2023-02-08T11:52:27.731Z,3.80
2023-02-08T11:55:12.323Z,3.65
2023-02-08T11:57:59.837Z,3.55
2023-02-08T12:00:30.712Z,4.47
2023-02-08T12:03:18.394Z,3.30
2023-02-08T12:06:04.753Z,3.25
2023-02-08T12:08:54.478Z,3.20
2023-02-08T12:11:48.213Z,3.50
2023-02-08T12:14:45.258Z,3.60
2023-02-08T12:17:34.152Z,3.60
2023-02-08T12:20:35.045Z,4.05
2023-02-08T12:23:26.599Z,3.78
2023-02-08T12:26:30.768Z,3.80
2023-02-08T12:29:13.753Z,3.45
2023-02-08T12:32:18.765Z,3.47
2023-02-08T12:34:57.255Z,3.08
2023-02-08T12:37:55.216Z,3.38
2023-02-08T12:40:55.456Z,3.20
2023-02-08T12:43:52.538Z,3.30
2023-02-08T12:47:05.215Z,3.13
2023-02-08T12:49:56.056Z,3.10
2023-02-08T12:52:46.657Z,3.55
2023-02-08T12:55:32.234Z,3.28
2023-02-08T12:58:26.617Z,3.17
2023-02-08T13:00:57.100Z,3.22
2023-02-08T13:04:11.222Z,3.33
2023-02-08T13:06:47.114Z,3.10
2023-02-08T13:12:23.863Z,3.67
2023-02-08T13:14:52.002Z,2.40
2023-02-08T13:17:30.413Z,2.80
2023-02-08T13:20:33.554Z,2.67
2023-02-08T13:23:12.138Z,2.90
2023-02-08T13:25:43.137Z,2.90
2023-02-08T13:28:20.855Z,3.40
2023-02-08T13:31:08.945Z,2.92
2023-02-08T13:34:00.782Z,3.13
2023-02-08T13:36:41.213Z,3.05
2023-02-08T13:39:42.930Z,2.80
2023-02-08T13:42:35.091Z,3.13
2023-02-08T13:45:04.141Z,3.05
2023-02-08T13:48:23.390Z,2.88
2023-02-08T13:50:57.307Z,2.50
2023-02-08T13:53:56.285Z,2.75
2023-02-08T13:56:51.471Z,2.35
2023-02-08T13:59:30.447Z,2.88
2023-02-08T14:02:12.837Z,2.83
2023-02-08T14:04:48.023Z,2.63
2023-02-08T14:07:42.211Z,2.78
2023-02-08T14:10:39.493Z,2.85
2023-02-08T14:13:31.502Z,2.83
2023-02-08T14:16:30.915Z,2.00
2023-02-08T14:19:19.215Z,2.65
2023-02-08T14:22:13.576Z,3.40
2023-02-08T14:24:49.574Z,2.55
2023-02-08T14:27:22.519Z,2.50
2023-02-08T14:30:05.035Z,3.13
2023-02-08T14:32:38.082Z,2.90
2023-02-08T14:35:09.332Z,2.50
2023-02-08T14:37:37.806Z,2.47
2023-02-08T14:40:33.497Z,2.50
2023-02-08T14:43:25.190Z,2.20
2023-02-08T14:45:54.880Z,2.47
2023-02-08T14:48:45.755Z,2.70
2023-02-08T14:51:12.444Z,2.40
2023-02-08T14:53:42.145Z,2.38
2023-02-08T14:56:35.234Z,3.17
2023-02-08T14:59:15.326Z,3.05
2023-02-08T15:01:54.421Z,3.10
2023-02-08T15:04:21.808Z,2.90
2023-02-08T15:07:25.551Z,3.00
2023-02-08T15:09:53.522Z,3.28
2023-02-08T15:12:33.042Z,3.08
2023-02-08T15:15:02.216Z,2.85
2023-02-08T15:17:41.018Z,3.30
2023-02-08T15:20:18.630Z,3.22
2023-02-08T15:22:45.662Z,3.50
2023-02-08T15:25:34.600Z,3.60
2023-02-08T15:28:23.819Z,3.15
2023-02-08T15:31:02.376Z,3.20
2023-02-08T15:33:29.407Z,3.38
2023-02-08T15:36:07.929Z,3.72
2023-02-08T15:38:38.745Z,3.63
2023-02-08T15:41:16.236Z,3.67
2023-02-08T15:43:43.508Z,3.65
2023-02-08T15:46:26.416Z,3.85
2023-02-08T15:48:56.761Z,4.07
2023-02-08T15:51:24.684Z,3.25
2023-02-08T15:53:55.796Z,4.40
2023-02-08T15:56:38.404Z,3.72
2023-02-08T15:59:16.136Z,3.80
2023-02-08T16:01:47.650Z,4.72
2023-02-08T16:04:14.473Z,4.80
2023-02-08T16:06:55.067Z,5.90
2023-02-08T16:09:27.490Z,5.25
2023-02-08T16:12:00.973Z,5.30
2023-02-08T16:14:30.268Z,6.05
2023-02-08T16:16:58.622Z,6.38
2023-02-08T16:19:33.630Z,5.68
2023-02-08T16:22:12.550Z,4.57
2023-02-08T16:24:39.557Z,5.22
2023-02-08T16:27:24.484Z,6.47
2023-02-08T16:29:52.139Z,8.88
2023-02-08T16:32:34.146Z,8.70
2023-02-08T16:35:11.886Z,8.73
2023-02-08T16:37:38.908Z,8.10
2023-02-08T16:40:43.762Z,7.47
2023-02-08T16:43:31.842Z,4.25
2023-02-08T16:46:11.052Z,5.13
2023-02-08T16:48:42.254Z,4.93
2023-02-08T16:51:43.196Z,3.60
2023-02-08T16:54:15.591Z,3.53
2023-02-08T16:56:43.979Z,4.97
2023-02-08T16:59:12.696Z,4.32
2023-02-08T17:01:44.140Z,4.43
2023-02-08T17:04:10.907Z,4.50
2023-02-08T17:06:40.126Z,4.28
2023-02-08T17:09:09.310Z,3.58
2023-02-08T17:11:36.253Z,3.20
2023-02-08T17:14:06.094Z,2.78
2023-02-08T17:16:35.234Z,3.10
2023-02-08T17:19:03.486Z,3.33
2023-02-08T17:21:31.240Z,3.45
2023-02-08T17:23:59.143Z,4.20
2023-02-08T17:26:32.178Z,4.30
2023-02-08T17:28:59.658Z,4.43
2023-02-08T17:34:08.215Z,4.38
2023-02-08T17:36:37.117Z,4.68
2023-02-08T17:39:05.627Z,4.57
2023-02-08T17:41:32.847Z,4.35
2023-02-08T17:43:59.594Z,5.10
2023-02-08T17:46:30.545Z,5.68
2023-02-08T17:49:01.775Z,5.25
2023-02-08T17:51:29.550Z,4.28
2023-02-08T17:53:56.296Z,6.28
2023-02-08T17:56:28.470Z,4.80
2023-02-08T17:58:55.859Z,5.22
2023-02-08T18:01:26.470Z,3.60
2023-02-08T18:03:54.362Z,3.78
2023-02-08T18:06:23.073Z,4.47
2023-02-08T18:08:49.689Z,3.53
2023-02-08T18:11:20.010Z,3.55
2023-02-08T18:13:49.703Z,3.67
2023-02-08T18:16:27.766Z,3.80
2023-02-08T18:18:57.125Z,4.07
2023-02-08T18:21:32.745Z,3.60
2023-02-08T18:24:04.945Z,4.60
2023-02-08T18:26:34.409Z,5.03
2023-02-08T18:29:02.082Z,5.47
2023-02-08T18:31:30.634Z,4.68
2023-02-08T18:33:57.428Z,4.93
2023-02-08T18:36:24.474Z,4.97
2023-02-08T18:38:55.515Z,4.10
2023-02-08T18:41:28.930Z,6.00
2023-02-08T18:43:57.651Z,4.43
2023-02-08T18:46:27.901Z,5.65
2023-02-08T18:48:55.403Z,5.45
2023-02-08T18:51:24.010Z,4.20
2023-02-08T18:53:54.080Z,4.75
2023-02-08T18:56:25.108Z,5.15
2023-02-08T18:58:58.698Z,4.75
2023-02-08T19:01:25.476Z,5.05
2023-02-08T19:03:52.861Z,6.78
2023-02-08T19:06:26.523Z,6.03
2023-02-08T19:08:56.262Z,5.63
2023-02-08T19:11:28.556Z,5.80
2023-02-08T19:13:57.718Z,6.03
2023-02-08T19:16:25.000Z,4.68
2023-02-08T19:18:53.177Z,4.95
2023-02-08T19:21:20.569Z,5.43
2023-02-08T19:23:49.322Z,5.93
2023-02-08T19:26:25.611Z,5.65
2023-02-08T19:28:54.979Z,5.10
2023-02-08T19:31:23.215Z,5.53
2023-02-08T19:33:58.491Z,5.30
2023-02-08T19:36:35.700Z,5.35
2023-02-08T19:39:02.902Z,5.55
2023-02-08T19:41:34.255Z,5.13
2023-02-08T19:44:01.949Z,5.70
2023-02-08T19:46:28.871Z,5.97
2023-02-08T19:49:00.057Z,5.40
2023-02-08T19:51:30.333Z,6.40
2023-02-08T19:53:58.913Z,5.20
2023-02-08T19:56:25.616Z,5.50
2023-02-08T19:58:52.341Z,5.43
2023-02-08T20:01:22.047Z,5.40
2023-02-08T20:03:50.253Z,5.63
2023-02-08T20:06:39.254Z,4.28
2023-02-08T20:09:08.261Z,5.68
2023-02-08T20:11:51.248Z,5.78
2023-02-08T20:14:23.366Z,4.40
2023-02-08T20:16:50.087Z,4.85
2023-02-08T20:19:16.801Z,5.10
2023-02-08T20:21:45.249Z,5.47
2023-02-08T20:24:12.568Z,5.57
2023-02-08T20:26:42.725Z,4.78
2023-02-08T20:29:10.322Z,6.10
2023-02-08T20:31:40.915Z,5.40
2023-02-08T20:34:11.471Z,5.20
2023-02-08T20:36:49.590Z,5.85
2023-02-08T20:39:20.589Z,5.45
2023-02-08T20:41:47.586Z,4.97
2023-02-08T20:44:18.120Z,5.65
2023-02-08T20:46:45.258Z,5.38
2023-02-08T20:49:15.173Z,5.38
2023-02-08T20:51:43.239Z,5.72
2023-02-08T20:54:11.436Z,5.47
2023-02-08T20:56:39.006Z,5.82
2023-02-08T20:59:10.065Z,5.45
2023-02-08T21:01:37.160Z,4.97
2023-02-08T21:04:05.122Z,6.15
2023-02-08T21:06:36.675Z,5.57
2023-02-08T21:09:11.085Z,5.95
2023-02-08T21:11:38.636Z,5.15
2023-02-08T21:14:06.944Z,5.25
2023-02-08T21:16:34.060Z,4.90
2023-02-08T21:19:01.089Z,5.32
2023-02-08T21:21:28.448Z,5.07
2023-02-08T21:23:56.757Z,5.72
2023-02-08T21:26:25.536Z,5.50
2023-02-08T21:28:55.044Z,6.25
2023-02-08T21:31:23.531Z,6.07
2023-02-08T21:33:50.985Z,6.63
2023-02-08T21:36:22.460Z,5.85
2023-02-08T21:38:49.470Z,5.53
2023-02-08T21:41:22.532Z,5.93
2023-02-08T21:43:51.093Z,6.30
2023-02-08T21:46:18.297Z,6.95
2023-02-08T21:49:04.555Z,5.95
2023-02-08T21:51:50.475Z,6.05
2023-02-08T21:54:44.108Z,6.75
2023-02-08T21:57:21.617Z,6.63
2023-02-08T21:59:51.055Z,6.50
2023-02-08T22:02:28.205Z,5.50
2023-02-08T22:04:57.856Z,6.05
2023-02-08T22:07:25.718Z,5.40
2023-02-08T22:09:53.340Z,5.55
2023-02-08T22:12:22.779Z,5.95
2023-02-08T22:14:50.578Z,6.47
2023-02-08T22:17:17.976Z,7.07
2023-02-08T22:19:44.778Z,6.68
2023-02-08T22:22:11.641Z,7.80
2023-02-08T22:24:38.576Z,6.05
2023-02-08T22:27:05.325Z,7.90
2023-02-08T22:29:32.301Z,7.10
2023-02-08T22:31:59.362Z,5.65
2023-02-08T22:34:27.501Z,6.05
2023-02-08T22:36:54.309Z,6.72
2023-02-08T22:39:21.750Z,6.40
2023-02-08T22:41:48.752Z,6.35
2023-02-08T22:44:15.648Z,6.22
2023-02-08T22:46:42.323Z,5.75
2023-02-08T22:49:09.025Z,6.88
2023-02-08T22:51:35.844Z,7.28
2023-02-08T22:54:02.857Z,7.32
2023-02-08T22:56:29.603Z,6.28
2023-02-08T22:58:56.576Z,7.00
2023-02-08T23:01:23.375Z,7.30
2023-02-08T23:03:50.279Z,5.47
2023-02-08T23:06:17.627Z,6.78
2023-02-08T23:08:44.562Z,5.55
2023-02-08T23:11:13.267Z,6.18
2023-02-08T23:13:40.379Z,6.18
2023-02-08T23:16:07.704Z,6.43
2023-02-08T23:18:36.396Z,5.38
2023-02-08T23:21:08.606Z,6.53
2023-02-08T23:23:36.358Z,6.82
2023-02-08T23:26:09.210Z,6.43
2023-02-08T23:28:37.060Z,7.35
2023-02-08T23:31:09.726Z,6.70
2023-02-08T23:33:37.603Z,6.50
2023-02-08T23:36:12.007Z,7.57
2023-02-08T23:38:39.502Z,7.80
2023-02-08T23:41:10.919Z,7.13
2023-02-08T23:43:38.087Z,8.38
2023-02-08T23:46:16.562Z,7.72
2023-02-08T23:48:44.416Z,8.10
2023-02-08T23:51:11.152Z,9.43
2023-02-08T23:53:37.961Z,7.57
2023-02-08T23:56:19.768Z,7.15
2023-02-08T23:58:49.914Z,8.07
